createdAt,value
2022-08-10T00:01:53.568Z,99879.47
2022-08-10T00:04:24.831Z,99878.72
2022-08-10T00:06:54.344Z,99870.06
2022-08-10T00:09:25.414Z,99872.22
2022-08-10T00:11:54.321Z,99875.47
2022-08-10T00:14:22.764Z,99893.31
2022-08-10T00:16:53.364Z,99882.25
2022-08-10T00:19:21.971Z,99883.28
2022-08-10T00:21:51.077Z,99882.31
2022-08-10T00:24:20.879Z,99878.63
2022-08-10T00:27:50.068Z,99879.25
2022-08-10T00:29:40.062Z,99881.06
2022-08-10T00:32:09.302Z,99876.97
2022-08-10T00:34:37.522Z,99877.94
2022-08-10T00:37:06.189Z,99877.97
2022-08-10T00:39:36.345Z,99877.34
2022-08-10T00:42:10.835Z,99868.13
2022-08-10T00:44:40.184Z,99867.38
2022-08-10T00:47:35.420Z,99863.16
2022-08-10T00:49:59.105Z,99871.00
2022-08-10T00:52:29.107Z,99854.84
2022-08-10T00:54:58.144Z,99868.59
2022-08-10T00:57:28.942Z,99872.31
2022-08-10T00:59:59.787Z,99863.97
2022-08-10T01:02:31.036Z,99869.41
2022-08-10T01:05:02.515Z,99870.69
2022-08-10T01:07:58.344Z,99861.78
2022-08-10T01:10:42.960Z,99861.94
2022-08-10T01:13:23.746Z,99861.28
2022-08-10T01:16:01.345Z,99859.75
2022-08-10T01:18:41.672Z,99858.72
2022-08-10T01:21:34.793Z,99849.22
2022-08-10T01:24:26.457Z,99854.06
2022-08-10T01:27:17.277Z,99850.38
2022-08-10T01:30:08.125Z,99854.63
2022-08-10T01:32:48.344Z,99855.75
2022-08-10T01:35:23.892Z,99855.03
2022-08-10T01:38:02.270Z,99851.50
2022-08-10T01:40:34.252Z,99860.84
2022-08-10T01:43:08.090Z,99855.34
2022-08-10T01:45:44.848Z,99849.38
2022-08-10T01:48:31.910Z,99850.50
2022-08-10T01:51:06.426Z,99859.75
2022-08-10T01:53:41.750Z,99861.84
2022-08-10T01:56:12.526Z,99860.00
2022-08-10T01:58:42.333Z,99860.59
2022-08-10T02:01:17.364Z,99860.59
2022-08-10T02:04:04.045Z,99862.69
2022-08-10T02:06:39.154Z,99864.97
2022-08-10T02:09:09.559Z,99862.69
2022-08-10T02:11:55.847Z,99866.34
2022-08-10T02:14:33.599Z,99871.31
2022-08-10T02:17:08.017Z,99870.88
2022-08-10T02:19:40.002Z,99867.34
2022-08-10T02:22:36.729Z,99867.22
2022-08-10T02:25:02.421Z,99871.63
2022-08-10T02:27:31.322Z,99873.34
2022-08-10T02:30:00.576Z,99875.59
2022-08-10T02:32:38.162Z,99871.91
2022-08-10T02:35:18.666Z,99874.03
2022-08-10T02:37:52.715Z,99873.47
2022-08-10T02:45:01.996Z,99877.59
2022-08-10T02:45:18.409Z,99882.97
2022-08-10T02:46:18.241Z,99880.28
2022-08-10T02:48:57.092Z,99878.13
2022-08-10T02:52:06.695Z,99869.91
2022-08-10T02:54:25.871Z,99872.91
2022-08-10T02:56:58.635Z,99879.84
2022-08-10T02:59:40.074Z,99874.91
2022-08-10T03:02:12.515Z,99874.75
2022-08-10T03:04:55.138Z,99869.34
2022-08-10T03:07:42.857Z,99870.78
2022-08-10T03:10:17.217Z,99862.56
2022-08-10T03:12:50.680Z,99872.34
2022-08-10T03:15:22.142Z,99873.03
2022-08-10T03:17:57.389Z,99865.81
2022-08-10T03:20:37.651Z,99869.78
2022-08-10T03:23:11.647Z,99865.53
2022-08-10T03:25:41.218Z,99862.56
2022-08-10T03:28:23.670Z,99856.91
2022-08-10T03:30:54.045Z,99865.28
2022-08-10T03:33:23.628Z,99860.84
2022-08-10T03:36:40.112Z,99860.59
2022-08-10T03:38:43.784Z,99863.53
2022-08-10T03:41:16.082Z,99856.75
2022-08-10T03:43:52.017Z,99864.22
2022-08-10T03:46:23.526Z,99859.25
2022-08-10T03:48:55.598Z,99870.47
2022-08-10T03:51:27.870Z,99863.66
2022-08-10T03:54:04.839Z,99858.03
2022-08-10T03:56:39.948Z,99858.34
2022-08-10T03:59:10.395Z,99869.41
2022-08-10T04:02:43.754Z,99868.38
2022-08-10T04:04:27.539Z,99871.22
2022-08-10T04:07:02.152Z,99865.38
2022-08-10T04:09:53.921Z,99866.81
2022-08-10T04:12:20.819Z,99869.13
2022-08-10T04:14:51.910Z,99865.81
2022-08-10T04:18:01.125Z,99878.75
2022-08-10T04:20:20.634Z,99876.06
2022-08-10T04:22:53.673Z,99880.53
2022-08-10T04:25:25.462Z,99872.97
2022-08-10T04:27:55.399Z,99884.53
2022-08-10T04:30:27.917Z,99873.28
2022-08-10T04:32:57.975Z,99882.53
2022-08-10T04:35:29.318Z,99885.59
2022-08-10T04:38:00.673Z,99888.47
2022-08-10T04:40:31.049Z,99882.88
2022-08-10T04:43:11.839Z,99881.50
2022-08-10T04:45:49.964Z,99885.44
2022-08-10T04:48:42.243Z,99883.25
2022-08-10T04:51:15.417Z,99880.16
2022-08-10T04:54:06.124Z,99884.56
2022-08-10T04:56:37.113Z,99879.09
2022-08-10T04:59:06.702Z,99874.59
2022-08-10T05:02:21.393Z,99884.41
2022-08-10T05:04:35.955Z,99874.19
2022-08-10T05:07:08.582Z,99871.94
2022-08-10T05:10:01.255Z,99869.41
2022-08-10T05:12:27.551Z,99873.94
2022-08-10T05:14:56.168Z,99879.56
2022-08-10T05:17:26.193Z,99883.69
2022-08-10T05:20:01.763Z,99880.59
2022-08-10T05:22:33.607Z,99883.03
2022-08-10T05:25:03.728Z,99886.25
2022-08-10T05:27:33.789Z,99892.66
2022-08-10T05:30:03.635Z,99891.53
2022-08-10T05:32:32.930Z,99886.75
2022-08-10T05:35:22.101Z,99880.81
2022-08-10T05:38:10.428Z,99890.19
2022-08-10T05:40:46.820Z,99887.34
2022-08-10T05:43:18.349Z,99891.03
2022-08-10T05:46:18.904Z,99892.16
2022-08-10T05:48:55.411Z,99889.91
2022-08-10T05:51:27.847Z,99897.00
2022-08-10T05:54:03.022Z,99894.00
2022-08-10T05:56:56.844Z,99895.13
2022-08-10T06:00:11.182Z,99892.28
2022-08-10T06:02:41.136Z,99897.13
2022-08-10T06:05:11.632Z,99897.91
2022-08-10T06:07:44.231Z,99890.31
2022-08-10T06:10:31.478Z,99888.97
2022-08-10T06:13:30.137Z,99903.31
2022-08-10T06:16:06.108Z,99910.69
2022-08-10T06:18:35.111Z,99905.16
2022-08-10T06:21:03.931Z,99902.97
2022-08-10T06:23:33.146Z,99909.75
2022-08-10T06:26:09.553Z,99902.97
2022-08-10T06:29:02.313Z,99913.56
2022-08-10T06:31:47.105Z,99908.09
2022-08-10T06:34:21.894Z,99906.38
2022-08-10T06:36:51.411Z,99907.16
2022-08-10T06:39:36.493Z,99902.03
2022-08-10T06:45:12.353Z,99905.59
2022-08-10T06:47:45.277Z,99900.75
2022-08-10T06:50:45.052Z,99901.78
2022-08-10T06:53:13.389Z,99905.75
2022-08-10T06:55:55.525Z,99899.44
2022-08-10T06:58:30.723Z,99905.56
2022-08-10T07:01:03.226Z,99897.28
2022-08-10T07:03:38.337Z,99899.41
2022-08-10T07:06:09.503Z,99905.31
2022-08-10T07:08:39.550Z,99899.13
2022-08-10T07:11:12.152Z,99900.84
2022-08-10T07:14:17.034Z,99903.28
2022-08-10T07:16:33.449Z,99899.75
2022-08-10T07:19:03.829Z,99904.84
2022-08-10T07:21:33.308Z,99902.75
2022-08-10T07:24:05.214Z,99898.22
2022-08-10T07:26:35.243Z,99902.31
2022-08-10T07:29:05.754Z,99903.84
2022-08-10T07:31:56.907Z,99910.25
2022-08-10T07:34:30.117Z,99906.72
2022-08-10T07:37:02.606Z,99909.50
2022-08-10T07:40:03.980Z,99904.88
2022-08-10T07:42:26.181Z,99907.97
2022-08-10T07:44:54.558Z,99910.50
2022-08-10T07:47:46.232Z,99916.09
2022-08-10T07:50:22.459Z,99918.47
2022-08-10T07:52:54.923Z,99915.94
2022-08-10T07:56:04.216Z,99913.19
2022-08-10T07:58:13.052Z,99910.63
2022-08-10T08:00:42.538Z,99908.44
2022-08-10T08:03:15.296Z,99905.03
2022-08-10T08:05:58.444Z,99915.13
2022-08-10T08:08:32.430Z,99908.78
2022-08-10T08:11:02.103Z,99912.53
2022-08-10T08:13:32.296Z,99909.09
2022-08-10T08:16:17.189Z,99906.38
2022-08-10T08:19:25.546Z,99895.78
2022-08-10T08:24:06.555Z,99910.28
2022-08-10T08:24:34.858Z,99904.19
2022-08-10T08:27:04.542Z,99902.25
2022-08-10T08:29:36.115Z,99906.66
2022-08-10T08:32:06.003Z,99900.03
2022-08-10T08:34:39.164Z,99901.72
2022-08-10T08:37:10.636Z,99905.63
2022-08-10T08:39:44.160Z,99898.88
2022-08-10T08:42:36.622Z,99898.63
2022-08-10T08:45:20.169Z,99896.66
2022-08-10T08:48:09.714Z,99893.63
2022-08-10T08:50:57.365Z,99890.00
2022-08-10T08:54:02.008Z,99885.91
2022-08-10T08:56:41.073Z,99889.16
2022-08-10T08:59:32.223Z,99889.53
2022-08-10T09:02:19.915Z,99886.06
2022-08-10T09:05:18.474Z,99883.44
2022-08-10T09:08:12.563Z,99884.25
2022-08-10T09:10:51.820Z,99882.94
2022-08-10T09:13:29.571Z,99875.06
2022-08-10T09:16:10.235Z,99881.91
2022-08-10T09:18:49.804Z,99876.13
2022-08-10T09:21:24.897Z,99869.59
2022-08-10T09:24:06.428Z,99862.66
2022-08-10T09:26:44.867Z,99870.06
2022-08-10T09:29:17.236Z,99865.69
2022-08-10T09:31:55.916Z,99863.25
2022-08-10T09:36:24.400Z,99854.16
2022-08-10T09:38:01.683Z,99857.25
2022-08-10T09:41:03.072Z,99855.22
2022-08-10T09:43:41.237Z,99847.41
2022-08-10T09:46:20.297Z,99854.16
2022-08-10T09:49:00.241Z,99858.16
2022-08-10T09:51:46.776Z,99852.41
2022-08-10T09:54:49.078Z,99843.84
2022-08-10T09:57:51.744Z,99843.63
2022-08-10T10:00:28.766Z,99839.69
2022-08-10T10:03:10.189Z,99838.16
2022-08-10T10:05:51.964Z,99836.28
2022-08-10T10:08:29.473Z,99835.81
2022-08-10T10:11:09.802Z,99835.81
2022-08-10T10:14:04.373Z,99832.41
2022-08-10T10:16:47.938Z,99832.53
2022-08-10T10:19:40.009Z,99825.44
2022-08-10T10:22:26.478Z,99823.16
2022-08-10T10:25:20.807Z,99821.25
2022-08-10T10:27:59.533Z,99815.56
2022-08-10T10:30:36.777Z,99813.25
2022-08-10T10:33:14.551Z,99811.88
2022-08-10T10:35:49.876Z,99820.94
2022-08-10T10:38:20.334Z,99816.38
2022-08-10T10:40:54.589Z,99808.38
2022-08-10T10:43:41.876Z,99809.94
2022-08-10T10:46:24.255Z,99805.38
2022-08-10T10:49:04.469Z,99805.31
2022-08-10T10:51:36.042Z,99796.13
2022-08-10T10:54:13.208Z,99807.25
2022-08-10T10:56:56.910Z,99798.06
2022-08-10T10:59:55.897Z,99805.56
2022-08-10T11:02:40.076Z,99807.47
2022-08-10T11:05:20.619Z,99797.72
2022-08-10T11:07:57.022Z,99789.28
2022-08-10T11:10:34.664Z,99787.03
2022-08-10T11:14:25.929Z,99789.25
2022-08-10T11:16:19.784Z,99776.59
2022-08-10T11:19:15.875Z,99787.09
2022-08-10T11:21:57.212Z,99785.44
2022-08-10T11:24:47.038Z,99777.28
2022-08-10T11:27:25.099Z,99779.66
2022-08-10T11:30:04.098Z,99764.59
2022-08-10T11:32:40.258Z,99763.88
2022-08-10T11:35:20.324Z,99765.63
2022-08-10T11:38:34.436Z,99770.47
2022-08-10T11:41:05.584Z,99755.88
2022-08-10T11:44:10.703Z,99754.38
2022-08-10T11:46:46.301Z,99751.72
2022-08-10T11:49:19.779Z,99754.88
2022-08-10T11:51:54.136Z,99757.75
2022-08-10T11:54:32.026Z,99745.22
2022-08-10T11:57:02.796Z,99745.50
2022-08-10T11:59:57.921Z,99737.84
2022-08-10T12:02:33.279Z,99742.59
2022-08-10T12:05:08.627Z,99740.88
2022-08-10T12:09:23.996Z,99746.59
2022-08-10T12:10:37.463Z,99736.97
2022-08-10T12:13:13.105Z,99731.69
2022-08-10T12:15:48.247Z,99727.84
2022-08-10T12:18:31.186Z,99729.19
2022-08-10T12:21:05.083Z,99735.94
2022-08-10T12:23:44.193Z,99719.19
2022-08-10T12:26:16.697Z,99728.78
2022-08-10T12:28:52.107Z,99726.66
2022-08-10T12:31:25.568Z,99721.09
2022-08-10T12:34:07.048Z,99720.97
2022-08-10T12:36:41.622Z,99721.09
2022-08-10T12:39:20.075Z,99713.94
2022-08-10T12:41:54.795Z,99708.09
2022-08-10T12:44:35.708Z,99707.41
2022-08-10T12:47:22.452Z,99703.31
2022-08-10T12:50:29.300Z,99695.66
2022-08-10T12:52:53.831Z,99688.16
2022-08-10T12:55:25.233Z,99678.13
2022-08-10T12:57:56.882Z,99682.53
2022-08-10T13:00:32.343Z,99684.34
2022-08-10T13:03:03.829Z,99668.25
2022-08-10T13:06:00.340Z,99677.72
2022-08-10T13:08:42.066Z,99675.19
2022-08-10T13:11:18.436Z,99677.00
2022-08-10T13:14:10.579Z,99670.41
2022-08-10T13:16:42.530Z,99673.69
2022-08-10T13:19:15.910Z,99676.28
2022-08-10T13:21:45.434Z,99676.97
2022-08-10T13:24:17.651Z,99661.97
2022-08-10T13:27:25.319Z,99666.59
2022-08-10T13:29:49.757Z,99663.97
2022-08-10T13:32:23.686Z,99673.13
2022-08-10T13:34:53.903Z,99650.81
2022-08-10T13:37:26.896Z,99646.44
2022-08-10T13:40:00.430Z,99646.50
2022-08-10T13:42:37.186Z,99639.97
2022-08-10T13:45:12.562Z,99630.44
2022-08-10T13:47:48.680Z,99636.28
2022-08-10T13:50:33.359Z,99631.03
2022-08-10T13:53:13.934Z,99628.66
2022-08-10T13:55:53.336Z,99630.66
2022-08-10T13:58:28.176Z,99627.50
2022-08-10T14:01:01.761Z,99622.16
2022-08-10T14:03:37.625Z,99626.69
2022-08-10T14:06:10.070Z,99615.75
2022-08-10T14:08:41.453Z,99622.72
2022-08-10T14:11:16.005Z,99619.31
2022-08-10T14:13:54.983Z,99615.06
2022-08-10T14:16:24.869Z,99611.28
2022-08-10T14:18:56.381Z,99604.88
2022-08-10T14:21:25.935Z,99606.59
2022-08-10T14:23:54.500Z,99620.72
2022-08-10T14:26:26.539Z,99604.44
2022-08-10T14:29:00.358Z,99603.09
2022-08-10T14:31:33.806Z,99609.41
2022-08-10T14:34:08.750Z,99598.06
2022-08-10T14:36:42.465Z,99603.69
2022-08-10T14:39:16.797Z,99605.53
2022-08-10T14:42:04.455Z,99604.81
2022-08-10T14:44:48.926Z,99595.50
2022-08-10T14:47:52.782Z,99602.94
2022-08-10T14:50:32.592Z,99593.94
2022-08-10T14:53:09.478Z,99593.94
2022-08-10T14:55:57.530Z,99590.66
2022-08-10T14:58:31.395Z,99575.75
2022-08-10T15:01:02.674Z,99592.31
2022-08-10T15:03:59.491Z,99591.03
2022-08-10T15:06:31.001Z,99583.00
2022-08-10T15:09:12.218Z,99585.28
2022-08-10T15:12:15.253Z,99583.81
2022-08-10T15:14:43.311Z,99577.16
2022-08-10T15:17:18.180Z,99581.34
2022-08-10T15:20:04.463Z,99583.13
2022-08-10T15:22:40.443Z,99578.53
2022-08-10T15:25:19.041Z,99582.13
2022-08-10T15:27:55.701Z,99582.59
2022-08-10T15:30:32.409Z,99579.56
2022-08-10T15:33:57.045Z,99583.47
2022-08-10T15:36:34.733Z,99571.09
2022-08-10T15:39:16.510Z,99566.53
2022-08-10T15:42:02.206Z,99573.97
2022-08-10T15:44:38.894Z,99565.59
2022-08-10T15:47:11.198Z,99562.38
2022-08-10T15:49:53.191Z,99574.28
2022-08-10T15:52:39.627Z,99556.16
2022-08-10T15:55:43.646Z,99561.09
2022-08-10T15:58:14.694Z,99553.31
2022-08-10T16:00:51.561Z,99552.88
2022-08-10T16:03:27.725Z,99550.81
2022-08-10T16:06:03.373Z,99542.09
2022-08-10T16:08:56.355Z,99543.91
2022-08-10T16:11:38.161Z,99545.78
2022-08-10T16:14:19.985Z,99548.44
2022-08-10T16:16:54.906Z,99540.16
2022-08-10T16:19:27.256Z,99531.69
2022-08-10T16:22:36.433Z,99531.69
2022-08-10T16:24:54.032Z,99526.31
2022-08-10T16:27:29.268Z,99531.81
2022-08-10T16:30:01.086Z,99527.78
2022-08-10T16:32:34.175Z,99529.63
2022-08-10T16:35:09.144Z,99532.19
2022-08-10T16:37:56.712Z,99529.50
2022-08-10T16:40:29.862Z,99519.88
2022-08-10T16:43:00.644Z,99526.56
2022-08-10T16:45:39.005Z,99517.59
2022-08-10T16:48:09.440Z,99523.31
2022-08-10T16:50:42.247Z,99525.81
2022-08-10T16:53:17.391Z,99521.75
2022-08-10T16:55:50.728Z,99520.78
2022-08-10T16:58:25.146Z,99518.78
2022-08-10T17:00:54.754Z,99522.88
2022-08-10T17:04:08.255Z,99522.63
2022-08-10T17:06:26.283Z,99526.19
2022-08-10T17:08:59.886Z,99524.59
2022-08-10T17:11:32.108Z,99521.00
2022-08-10T17:14:02.958Z,99515.06
2022-08-10T17:16:38.803Z,99511.31
2022-08-10T17:19:14.076Z,99522.25
2022-08-10T17:21:51.786Z,99523.09
2022-08-10T17:24:25.751Z,99519.13
2022-08-10T17:26:57.845Z,99527.44
2022-08-10T17:29:58.200Z,99530.22
2022-08-10T17:32:28.838Z,99525.59
2022-08-10T17:35:00.617Z,99526.56
2022-08-10T17:37:35.446Z,99518.56
2022-08-10T17:40:09.683Z,99528.09
2022-08-10T17:42:41.618Z,99525.75
2022-08-10T17:45:20.975Z,99523.69
2022-08-10T17:48:08.358Z,99519.47
2022-08-10T17:50:43.274Z,99529.81
2022-08-10T17:53:17.777Z,99523.00
2022-08-10T17:55:50.265Z,99522.88
2022-08-10T17:58:22.167Z,99528.28
2022-08-10T18:00:56.909Z,99522.19
2022-08-10T18:03:46.923Z,99518.84
2022-08-10T18:06:17.243Z,99522.66
2022-08-10T18:08:52.629Z,99524.53
2022-08-10T18:11:25.519Z,99529.94
2022-08-10T18:13:57.664Z,99530.44
2022-08-10T18:16:30.504Z,99525.78
2022-08-10T18:19:04.438Z,99527.69
2022-08-10T18:21:34.397Z,99530.81
2022-08-10T18:24:14.157Z,99535.25
2022-08-10T18:26:52.349Z,99536.03
2022-08-10T18:29:26.062Z,99534.59
2022-08-10T18:32:00.578Z,99528.72
2022-08-10T18:34:33.827Z,99538.84
2022-08-10T18:37:04.953Z,99534.97
2022-08-10T18:39:37.965Z,99540.63
2022-08-10T18:42:16.070Z,99544.84
2022-08-10T18:44:50.457Z,99541.81
2022-08-10T18:47:36.945Z,99546.78
2022-08-10T18:50:10.522Z,99552.03
2022-08-10T18:52:43.996Z,99551.53
2022-08-10T18:55:24.615Z,99562.78
2022-08-10T19:01:43.924Z,99559.19
2022-08-10T19:04:30.324Z,99562.03
2022-08-10T19:07:29.218Z,99561.88
2022-08-10T19:10:18.122Z,99559.44
2022-08-10T19:12:54.874Z,99570.22
2022-08-10T19:15:31.480Z,99564.25
2022-08-10T19:18:19.028Z,99573.09
2022-08-10T19:20:52.998Z,99572.44
2022-08-10T19:23:43.714Z,99575.34
2022-08-10T19:26:43.683Z,99580.94
2022-08-10T19:30:09.895Z,99578.88
2022-08-10T19:32:31.626Z,99574.72
2022-08-10T19:35:12.549Z,99572.53
2022-08-10T19:38:00.658Z,99563.50
2022-08-10T19:40:44.358Z,99558.13
2022-08-10T19:43:30.967Z,99569.16
2022-08-10T19:46:19.526Z,99572.72
2022-08-10T19:48:56.798Z,99580.31
2022-08-10T19:51:30.284Z,99574.97
2022-08-10T19:54:04.962Z,99581.00
2022-08-10T19:56:45.539Z,99575.59
2022-08-10T20:00:17.613Z,99571.91
2022-08-10T20:02:23.545Z,99578.78
2022-08-10T20:05:04.169Z,99576.22
2022-08-10T20:07:45.067Z,99577.06
2022-08-10T20:10:19.349Z,99580.84
2022-08-10T20:12:57.540Z,99577.31
2022-08-10T20:15:42.100Z,99586.38
2022-08-10T20:18:14.367Z,99577.63
2022-08-10T20:20:50.760Z,99579.84
2022-08-10T20:23:25.618Z,99579.25
2022-08-10T20:25:58.224Z,99585.59
2022-08-10T20:28:39.560Z,99584.59
2022-08-10T20:31:17.020Z,99585.94
2022-08-10T20:34:01.291Z,99585.31
2022-08-10T20:36:33.806Z,99589.00
2022-08-10T20:39:18.205Z,99587.31
2022-08-10T20:41:58.804Z,99591.84
2022-08-10T20:44:39.236Z,99596.59
2022-08-10T20:47:13.216Z,99594.38
2022-08-10T20:49:49.166Z,99586.88
2022-08-10T20:52:18.605Z,99596.50
2022-08-10T20:54:52.499Z,99603.16
2022-08-10T20:57:56.929Z,99591.06
2022-08-10T21:00:37.975Z,99598.28
2022-08-10T21:03:31.305Z,99595.00
2022-08-10T21:06:41.138Z,99604.25
2022-08-10T21:09:21.801Z,99589.88
2022-08-10T21:12:12.971Z,99590.06
2022-08-10T21:14:51.798Z,99595.38
2022-08-10T21:17:39.362Z,99591.56
2022-08-10T21:20:31.084Z,99588.91
2022-08-10T21:23:05.284Z,99586.06
2022-08-10T21:25:45.513Z,99587.59
2022-08-10T21:28:38.614Z,99589.63
2022-08-10T21:31:21.818Z,99593.19
2022-08-10T21:34:03.826Z,99596.41
2022-08-10T21:36:33.993Z,99584.84
2022-08-10T21:39:11.314Z,99587.41
2022-08-10T21:42:04.832Z,99591.34
2022-08-10T21:45:09.023Z,99584.84
2022-08-10T21:48:17.115Z,99584.31
2022-08-10T21:51:16.450Z,99588.91
2022-08-10T21:54:21.725Z,99584.47
2022-08-10T21:57:26.578Z,99587.19
2022-08-10T22:00:19.588Z,99581.13
2022-08-10T22:03:10.605Z,99575.00
2022-08-10T22:05:58.701Z,99577.25
2022-08-10T22:08:54.067Z,99574.75
2022-08-10T22:11:43.475Z,99579.25
2022-08-10T22:14:33.532Z,99574.53
2022-08-10T22:18:01.103Z,99574.66
2022-08-10T22:20:38.522Z,99586.88
2022-08-10T22:23:38.540Z,99585.03
2022-08-10T22:26:38.133Z,99583.75
2022-08-10T22:29:42.201Z,99574.50
2022-08-10T22:32:41.245Z,99577.03
2022-08-10T22:36:01.297Z,99580.22
2022-08-10T22:39:02.600Z,99575.72
2022-08-10T22:41:59.939Z,99581.13
2022-08-10T22:44:48.175Z,99577.91
2022-08-10T22:47:38.707Z,99585.53
2022-08-10T22:50:10.382Z,99583.69
2022-08-10T22:53:02.039Z,99586.56
2022-08-10T22:55:53.061Z,99595.00
2022-08-10T22:58:38.964Z,99591.28
2022-08-10T23:01:14.909Z,99593.16
2022-08-10T23:03:52.831Z,99593.81
2022-08-10T23:06:28.000Z,99591.94
2022-08-10T23:09:01.943Z,99585.91
2022-08-10T23:11:35.255Z,99585.69
2022-08-10T23:14:06.469Z,99578.13
2022-08-10T23:16:59.237Z,99584.69
2022-08-10T23:19:31.940Z,99590.09
2022-08-10T23:22:07.405Z,99592.66
2022-08-10T23:24:40.358Z,99597.38
2022-08-10T23:27:38.265Z,99594.84
2022-08-10T23:30:11.031Z,99595.34
2022-08-10T23:32:47.268Z,99585.38
2022-08-10T23:36:31.401Z,99581.81
2022-08-10T23:38:09.385Z,99581.47
2022-08-10T23:40:38.455Z,99576.75
2022-08-10T23:43:08.727Z,99564.22
2022-08-10T23:45:52.985Z,99567.97
2022-08-10T23:48:26.378Z,99570.84
2022-08-10T23:50:59.804Z,99562.72
2022-08-10T23:53:31.655Z,99571.69
2022-08-10T23:56:04.443Z,99568.81
2022-08-10T23:58:43.555Z,99580.31
